sensor_id;sensor_type;location;lat;lon;timestamp;P1;durP1;ratioP1;P2;durP2;ratioP2
55609;SDS011;41486;52.502;13.486;2023-05-08T00:00:57;2.20;;;2.00;;
55609;SDS011;41486;52.502;13.486;2023-05-08T00:03:26;3.38;;;2.40;;
55609;SDS011;41486;52.502;13.486;2023-05-08T00:05:54;3.17;;;2.28;;
55609;SDS011;41486;52.502;13.486;2023-05-08T00:08:23;3.08;;;2.03;;
55609;SDS011;41486;52.502;13.486;2023-05-08T00:10:51;2.67;;;2.30;;
55609;SDS011;41486;52.502;13.486;2023-05-08T00:13:19;3.45;;;2.30;;
55609;SDS011;41486;52.502;13.486;2023-05-08T00:15:47;2.42;;;2.20;;
55609;SDS011;41486;52.502;13.486;2023-05-08T00:18:16;2.70;;;2.13;;
55609;SDS011;41486;52.502;13.486;2023-05-08T00:20:44;3.55;;;2.58;;
55609;SDS011;41486;52.502;13.486;2023-05-08T00:23:12;5.72;;;2.45;;
55609;SDS011;41486;52.502;13.486;2023-05-08T00:25:41;3.05;;;2.33;;
55609;SDS011;41486;52.502;13.486;2023-05-08T00:28:09;3.42;;;2.40;;
55609;SDS011;41486;52.502;13.486;2023-05-08T00:30:38;3.58;;;2.72;;
55609;SDS011;41486;52.502;13.486;2023-05-08T00:33:06;3.80;;;2.15;;
55609;SDS011;41486;52.502;13.486;2023-05-08T00:35:34;4.18;;;2.95;;
55609;SDS011;41486;52.502;13.486;2023-05-08T00:38:02;4.38;;;2.08;;
55609;SDS011;41486;52.502;13.486;2023-05-08T00:40:30;4.65;;;2.58;;
55609;SDS011;41486;52.502;13.486;2023-05-08T00:42:59;4.70;;;2.50;;
55609;SDS011;41486;52.502;13.486;2023-05-08T00:45:29;2.65;;;2.30;;
55609;SDS011;41486;52.502;13.486;2023-05-08T00:48:01;5.15;;;2.60;;
55609;SDS011;41486;52.502;13.486;2023-05-08T00:50:30;3.90;;;3.05;;
55609;SDS011;41486;52.502;13.486;2023-05-08T00:52:59;4.22;;;2.58;;
55609;SDS011;41486;52.502;13.486;2023-05-08T00:55:29;4.53;;;2.45;;
55609;SDS011;41486;52.502;13.486;2023-05-08T00:57:59;4.18;;;3.00;;
55609;SDS011;41486;52.502;13.486;2023-05-08T01:00:28;10.52;;;2.85;;
55609;SDS011;41486;52.502;13.486;2023-05-08T01:02:57;5.70;;;2.58;;
55609;SDS011;41486;52.502;13.486;2023-05-08T01:05:27;3.88;;;2.70;;
55609;SDS011;41486;52.502;13.486;2023-05-08T01:07:55;3.08;;;2.35;;
55609;SDS011;41486;52.502;13.486;2023-05-08T01:10:23;3.78;;;2.17;;
55609;SDS011;41486;52.502;13.486;2023-05-08T01:12:58;3.70;;;2.20;;
55609;SDS011;41486;52.502;13.486;2023-05-08T01:15:37;3.10;;;2.67;;
55609;SDS011;41486;52.502;13.486;2023-05-08T01:18:12;3.08;;;2.13;;
55609;SDS011;41486;52.502;13.486;2023-05-08T01:20:45;7.65;;;2.63;;
55609;SDS011;41486;52.502;13.486;2023-05-08T01:23:23;3.30;;;2.30;;
55609;SDS011;41486;52.502;13.486;2023-05-08T01:32:36;4.60;;;2.70;;
55609;SDS011;41486;52.502;13.486;2023-05-08T01:35:10;3.58;;;2.30;;
55609;SDS011;41486;52.502;13.486;2023-05-08T01:37:46;3.97;;;3.03;;
55609;SDS011;41486;52.502;13.486;2023-05-08T01:40:20;3.08;;;2.53;;
55609;SDS011;41486;52.502;13.486;2023-05-08T01:43:02;3.03;;;2.47;;
55609;SDS011;41486;52.502;13.486;2023-05-08T01:45:40;4.78;;;2.65;;
55609;SDS011;41486;52.502;13.486;2023-05-08T01:48:16;3.08;;;2.50;;
55609;SDS011;41486;52.502;13.486;2023-05-08T01:50:46;6.55;;;2.60;;
55609;SDS011;41486;52.502;13.486;2023-05-08T01:53:20;3.60;;;2.65;;
55609;SDS011;41486;52.502;13.486;2023-05-08T01:55:59;2.78;;;2.15;;
55609;SDS011;41486;52.502;13.486;2023-05-08T01:58:30;3.28;;;2.10;;
55609;SDS011;41486;52.502;13.486;2023-05-08T02:01:00;3.40;;;2.42;;
55609;SDS011;41486;52.502;13.486;2023-05-08T02:03:32;4.53;;;2.80;;
55609;SDS011;41486;52.502;13.486;2023-05-08T02:06:01;4.47;;;2.47;;
55609;SDS011;41486;52.502;13.486;2023-05-08T02:08:31;3.25;;;2.63;;
55609;SDS011;41486;52.502;13.486;2023-05-08T02:11:03;4.38;;;2.92;;
55609;SDS011;41486;52.502;13.486;2023-05-08T02:13:33;3.65;;;2.60;;
55609;SDS011;41486;52.502;13.486;2023-05-08T02:16:02;2.72;;;1.98;;
55609;SDS011;41486;52.502;13.486;2023-05-08T02:18:36;4.45;;;3.13;;
55609;SDS011;41486;52.502;13.486;2023-05-08T02:21:06;4.25;;;2.55;;
55609;SDS011;41486;52.502;13.486;2023-05-08T02:23:37;4.22;;;2.80;;
55609;SDS011;41486;52.502;13.486;2023-05-08T02:26:06;4.05;;;3.00;;
55609;SDS011;41486;52.502;13.486;2023-05-08T02:28:36;2.50;;;2.15;;
55609;SDS011;41486;52.502;13.486;2023-05-08T02:31:06;4.85;;;2.90;;
55609;SDS011;41486;52.502;13.486;2023-05-08T02:33:37;2.83;;;2.47;;
55609;SDS011;41486;52.502;13.486;2023-05-08T02:36:06;3.28;;;2.17;;
55609;SDS011;41486;52.502;13.486;2023-05-08T02:38:36;5.60;;;3.20;;
55609;SDS011;41486;52.502;13.486;2023-05-08T02:41:06;4.25;;;2.92;;
55609;SDS011;41486;52.502;13.486;2023-05-08T02:43:35;3.88;;;2.85;;
55609;SDS011;41486;52.502;13.486;2023-05-08T03:47:53;5.40;;;2.88;;
55609;SDS011;41486;52.502;13.486;2023-05-08T03:50:23;5.50;;;3.10;;
55609;SDS011;41486;52.502;13.486;2023-05-08T03:52:52;3.35;;;2.45;;
55609;SDS011;41486;52.502;13.486;2023-05-08T03:55:20;5.78;;;2.97;;
55609;SDS011;41486;52.502;13.486;2023-05-08T03:57:49;3.35;;;2.63;;
55609;SDS011;41486;52.502;13.486;2023-05-08T04:00:26;4.07;;;3.00;;
55609;SDS011;41486;52.502;13.486;2023-05-08T04:03:04;5.35;;;2.75;;
55609;SDS011;41486;52.502;13.486;2023-05-08T04:05:42;4.75;;;2.95;;
55609;SDS011;41486;52.502;13.486;2023-05-08T04:08:18;4.82;;;2.67;;
55609;SDS011;41486;52.502;13.486;2023-05-08T04:13:24;3.72;;;2.65;;
55609;SDS011;41486;52.502;13.486;2023-05-08T04:15:56;5.00;;;3.25;;
55609;SDS011;41486;52.502;13.486;2023-05-08T04:18:35;5.15;;;3.47;;
55609;SDS011;41486;52.502;13.486;2023-05-08T04:21:07;4.68;;;2.85;;
55609;SDS011;41486;52.502;13.486;2023-05-08T04:23:38;5.45;;;3.63;;
55609;SDS011;41486;52.502;13.486;2023-05-08T04:26:08;5.43;;;3.90;;
55609;SDS011;41486;52.502;13.486;2023-05-08T04:28:42;5.82;;;3.75;;
55609;SDS011;41486;52.502;13.486;2023-05-08T04:31:12;4.10;;;3.00;;
55609;SDS011;41486;52.502;13.486;2023-05-08T04:33:46;5.50;;;2.85;;
55609;SDS011;41486;52.502;13.486;2023-05-08T04:36:15;8.13;;;3.20;;
55609;SDS011;41486;52.502;13.486;2023-05-08T04:38:44;4.72;;;2.85;;
55609;SDS011;41486;52.502;13.486;2023-05-08T04:41:13;5.35;;;3.20;;
55609;SDS011;41486;52.502;13.486;2023-05-08T04:43:42;4.53;;;3.35;;
55609;SDS011;41486;52.502;13.486;2023-05-08T04:46:10;5.72;;;3.55;;
55609;SDS011;41486;52.502;13.486;2023-05-08T04:48:39;3.70;;;3.03;;
55609;SDS011;41486;52.502;13.486;2023-05-08T04:51:08;4.30;;;3.10;;
55609;SDS011;41486;52.502;13.486;2023-05-08T04:53:36;5.40;;;3.08;;
55609;SDS011;41486;52.502;13.486;2023-05-08T04:56:04;2.70;;;2.42;;
55609;SDS011;41486;52.502;13.486;2023-05-08T04:58:33;4.90;;;3.15;;
55609;SDS011;41486;52.502;13.486;2023-05-08T05:01:01;2.88;;;2.58;;
55609;SDS011;41486;52.502;13.486;2023-05-08T05:03:31;5.70;;;3.05;;
55609;SDS011;41486;52.502;13.486;2023-05-08T05:05:59;3.38;;;2.72;;
55609;SDS011;41486;52.502;13.486;2023-05-08T05:08:29;4.88;;;2.80;;
55609;SDS011;41486;52.502;13.486;2023-05-08T05:10:57;5.57;;;2.90;;
55609;SDS011;41486;52.502;13.486;2023-05-08T05:13:26;13.15;;;4.82;;
55609;SDS011;41486;52.502;13.486;2023-05-08T05:15:55;6.70;;;2.72;;
55609;SDS011;41486;52.502;13.486;2023-05-08T05:18:25;7.43;;;2.67;;
55609;SDS011;41486;52.502;13.486;2023-05-08T05:20:56;4.57;;;2.92;;
55609;SDS011;41486;52.502;13.486;2023-05-08T05:23:25;3.85;;;2.67;;
55609;SDS011;41486;52.502;13.486;2023-05-08T05:25:54;6.85;;;3.58;;
55609;SDS011;41486;52.502;13.486;2023-05-08T05:28:22;3.67;;;2.63;;
55609;SDS011;41486;52.502;13.486;2023-05-08T05:30:51;4.70;;;2.67;;
55609;SDS011;41486;52.502;13.486;2023-05-08T05:33:19;7.78;;;4.28;;
55609;SDS011;41486;52.502;13.486;2023-05-08T05:35:48;14.68;;;7.05;;
55609;SDS011;41486;52.502;13.486;2023-05-08T05:38:16;6.28;;;2.97;;
55609;SDS011;41486;52.502;13.486;2023-05-08T05:40:44;3.78;;;2.53;;
55609;SDS011;41486;52.502;13.486;2023-05-08T05:43:13;5.97;;;2.60;;
55609;SDS011;41486;52.502;13.486;2023-05-08T05:45:41;5.00;;;2.63;;
55609;SDS011;41486;52.502;13.486;2023-05-08T05:48:09;5.72;;;2.08;;
55609;SDS011;41486;52.502;13.486;2023-05-08T05:50:38;5.03;;;2.58;;
55609;SDS011;41486;52.502;13.486;2023-05-08T05:53:07;6.18;;;2.83;;
55609;SDS011;41486;52.502;13.486;2023-05-08T05:55:36;3.65;;;2.22;;
55609;SDS011;41486;52.502;13.486;2023-05-08T05:58:04;3.75;;;2.60;;
55609;SDS011;41486;52.502;13.486;2023-05-08T06:00:35;2.67;;;2.03;;
55609;SDS011;41486;52.502;13.486;2023-05-08T06:03:03;4.00;;;2.67;;
55609;SDS011;41486;52.502;13.486;2023-05-08T06:05:31;4.03;;;2.65;;
55609;SDS011;41486;52.502;13.486;2023-05-08T06:07:59;3.53;;;2.15;;
55609;SDS011;41486;52.502;13.486;2023-05-08T06:10:28;3.25;;;2.22;;
55609;SDS011;41486;52.502;13.486;2023-05-08T06:12:56;3.53;;;2.42;;
55609;SDS011;41486;52.502;13.486;2023-05-08T06:15:24;3.47;;;2.10;;
55609;SDS011;41486;52.502;13.486;2023-05-08T06:17:54;3.78;;;2.20;;
55609;SDS011;41486;52.502;13.486;2023-05-08T06:20:22;2.22;;;1.63;;
55609;SDS011;41486;52.502;13.486;2023-05-08T06:22:52;1.92;;;1.63;;
55609;SDS011;41486;52.502;13.486;2023-05-08T06:25:19;4.40;;;2.25;;
55609;SDS011;41486;52.502;13.486;2023-05-08T06:27:47;2.80;;;2.08;;
55609;SDS011;41486;52.502;13.486;2023-05-08T06:30:15;4.82;;;2.13;;
55609;SDS011;41486;52.502;13.486;2023-05-08T06:32:43;2.85;;;1.70;;
55609;SDS011;41486;52.502;13.486;2023-05-08T06:35:13;3.72;;;2.20;;
55609;SDS011;41486;52.502;13.486;2023-05-08T06:37:43;3.38;;;1.90;;
55609;SDS011;41486;52.502;13.486;2023-05-08T06:40:12;5.07;;;2.30;;
55609;SDS011;41486;52.502;13.486;2023-05-08T06:42:40;3.55;;;2.30;;
55609;SDS011;41486;52.502;13.486;2023-05-08T06:45:10;9.93;;;2.42;;
55609;SDS011;41486;52.502;13.486;2023-05-08T06:47:38;3.55;;;2.30;;
55609;SDS011;41486;52.502;13.486;2023-05-08T06:50:07;4.65;;;1.63;;
55609;SDS011;41486;52.502;13.486;2023-05-08T06:52:36;2.78;;;1.75;;
55609;SDS011;41486;52.502;13.486;2023-05-08T06:55:05;2.47;;;1.67;;
55609;SDS011;41486;52.502;13.486;2023-05-08T06:57:33;4.53;;;1.90;;
55609;SDS011;41486;52.502;13.486;2023-05-08T07:00:02;2.25;;;1.80;;
55609;SDS011;41486;52.502;13.486;2023-05-08T07:02:31;2.70;;;1.75;;
55609;SDS011;41486;52.502;13.486;2023-05-08T07:04:59;2.45;;;1.75;;
55609;SDS011;41486;52.502;13.486;2023-05-08T07:07:29;2.80;;;1.85;;
55609;SDS011;41486;52.502;13.486;2023-05-08T07:09:59;2.20;;;1.50;;
55609;SDS011;41486;52.502;13.486;2023-05-08T07:12:27;2.28;;;1.60;;
55609;SDS011;41486;52.502;13.486;2023-05-08T07:14:55;4.18;;;2.58;;
55609;SDS011;41486;52.502;13.486;2023-05-08T07:17:23;3.22;;;1.98;;
55609;SDS011;41486;52.502;13.486;2023-05-08T07:19:52;2.92;;;1.63;;
55609;SDS011;41486;52.502;13.486;2023-05-08T07:22:20;3.45;;;2.13;;
55609;SDS011;41486;52.502;13.486;2023-05-08T07:24:48;3.70;;;2.10;;
55609;SDS011;41486;52.502;13.486;2023-05-08T07:27:17;3.60;;;2.08;;
55609;SDS011;41486;52.502;13.486;2023-05-08T07:29:45;2.40;;;2.20;;
55609;SDS011;41486;52.502;13.486;2023-05-08T07:32:13;3.30;;;2.15;;
55609;SDS011;41486;52.502;13.486;2023-05-08T07:34:41;6.22;;;3.97;;
55609;SDS011;41486;52.502;13.486;2023-05-08T07:37:09;6.40;;;4.28;;
55609;SDS011;41486;52.502;13.486;2023-05-08T07:39:38;5.10;;;2.33;;
55609;SDS011;41486;52.502;13.486;2023-05-08T07:42:06;4.00;;;2.78;;
55609;SDS011;41486;52.502;13.486;2023-05-08T07:44:35;4.07;;;2.22;;
55609;SDS011;41486;52.502;13.486;2023-05-08T07:47:20;3.35;;;2.20;;
55609;SDS011;41486;52.502;13.486;2023-05-08T07:49:48;4.15;;;2.60;;
55609;SDS011;41486;52.502;13.486;2023-05-08T07:52:16;2.85;;;1.80;;
55609;SDS011;41486;52.502;13.486;2023-05-08T07:54:44;2.85;;;1.60;;
55609;SDS011;41486;52.502;13.486;2023-05-08T07:57:12;3.67;;;2.00;;
55609;SDS011;41486;52.502;13.486;2023-05-08T07:59:41;4.50;;;2.05;;
55609;SDS011;41486;52.502;13.486;2023-05-08T08:02:09;3.38;;;2.03;;
55609;SDS011;41486;52.502;13.486;2023-05-08T08:04:37;4.32;;;1.88;;
55609;SDS011;41486;52.502;13.486;2023-05-08T08:07:05;4.72;;;1.90;;
55609;SDS011;41486;52.502;13.486;2023-05-08T08:09:36;2.28;;;1.50;;
55609;SDS011;41486;52.502;13.486;2023-05-08T08:12:04;4.45;;;2.30;;
55609;SDS011;41486;52.502;13.486;2023-05-08T08:14:32;3.45;;;1.45;;
55609;SDS011;41486;52.502;13.486;2023-05-08T08:17:01;3.40;;;1.70;;
55609;SDS011;41486;52.502;13.486;2023-05-08T08:19:29;3.03;;;2.15;;
55609;SDS011;41486;52.502;13.486;2023-05-08T08:21:57;3.60;;;1.42;;
55609;SDS011;41486;52.502;13.486;2023-05-08T08:24:25;1.80;;;1.10;;
55609;SDS011;41486;52.502;13.486;2023-05-08T08:26:54;1.63;;;1.45;;
55609;SDS011;41486;52.502;13.486;2023-05-08T08:29:22;2.25;;;1.40;;
55609;SDS011;41486;52.502;13.486;2023-05-08T08:31:51;5.55;;;1.80;;
55609;SDS011;41486;52.502;13.486;2023-05-08T08:34:20;2.22;;;1.40;;
55609;SDS011;41486;52.502;13.486;2023-05-08T08:36:48;3.72;;;1.98;;
55609;SDS011;41486;52.502;13.486;2023-05-08T08:39:16;8.65;;;4.40;;
55609;SDS011;41486;52.502;13.486;2023-05-08T08:41:44;8.55;;;4.20;;
55609;SDS011;41486;52.502;13.486;2023-05-08T08:44:12;5.10;;;1.35;;
55609;SDS011;41486;52.502;13.486;2023-05-08T08:46:43;3.03;;;1.10;;
55609;SDS011;41486;52.502;13.486;2023-05-08T08:49:16;2.20;;;1.40;;
55609;SDS011;41486;52.502;13.486;2023-05-08T08:51:49;8.38;;;1.50;;
55609;SDS011;41486;52.502;13.486;2023-05-08T08:56:34;2.85;;;1.80;;
55609;SDS011;41486;52.502;13.486;2023-05-08T08:58:10;3.65;;;1.15;;
55609;SDS011;41486;52.502;13.486;2023-05-08T09:00:46;2.33;;;1.30;;
55609;SDS011;41486;52.502;13.486;2023-05-08T09:03:14;4.03;;;1.50;;
55609;SDS011;41486;52.502;13.486;2023-05-08T09:05:43;3.15;;;1.88;;
55609;SDS011;41486;52.502;13.486;2023-05-08T09:08:13;2.55;;;1.20;;
55609;SDS011;41486;52.502;13.486;2023-05-08T09:10:41;2.15;;;1.20;;
55609;SDS011;41486;52.502;13.486;2023-05-08T09:13:10;4.00;;;2.38;;
55609;SDS011;41486;52.502;13.486;2023-05-08T09:15:38;3.60;;;1.30;;
55609;SDS011;41486;52.502;13.486;2023-05-08T09:18:06;2.35;;;1.30;;
55609;SDS011;41486;52.502;13.486;2023-05-08T09:20:34;6.03;;;1.40;;
55609;SDS011;41486;52.502;13.486;2023-05-08T09:23:02;5.80;;;1.67;;
55609;SDS011;41486;52.502;13.486;2023-05-08T09:28:19;4.70;;;3.17;;
55609;SDS011;41486;52.502;13.486;2023-05-08T09:30:49;3.90;;;1.98;;
55609;SDS011;41486;52.502;13.486;2023-05-08T09:33:21;5.32;;;2.17;;
55609;SDS011;41486;52.502;13.486;2023-05-08T09:35:51;5.07;;;2.63;;
55609;SDS011;41486;52.502;13.486;2023-05-08T09:38:33;7.38;;;3.90;;
55609;SDS011;41486;52.502;13.486;2023-05-08T09:41:07;2.17;;;1.55;;
55609;SDS011;41486;52.502;13.486;2023-05-08T09:43:36;2.05;;;1.35;;
55609;SDS011;41486;52.502;13.486;2023-05-08T09:46:24;2.70;;;1.77;;
55609;SDS011;41486;52.502;13.486;2023-05-08T09:48:54;3.33;;;1.33;;
55609;SDS011;41486;52.502;13.486;2023-05-08T09:51:23;2.95;;;1.20;;
55609;SDS011;41486;52.502;13.486;2023-05-08T09:53:52;1.50;;;1.25;;
55609;SDS011;41486;52.502;13.486;2023-05-08T09:56:32;1.45;;;1.10;;
55609;SDS011;41486;52.502;13.486;2023-05-08T09:59:02;1.88;;;1.30;;
55609;SDS011;41486;52.502;13.486;2023-05-08T10:01:32;1.48;;;1.02;;
55609;SDS011;41486;52.502;13.486;2023-05-08T10:04:02;2.50;;;1.30;;
55609;SDS011;41486;52.502;13.486;2023-05-08T10:06:31;2.53;;;1.10;;
55609;SDS011;41486;52.502;13.486;2023-05-08T10:09:06;1.27;;;1.13;;
55609;SDS011;41486;52.502;13.486;2023-05-08T10:11:37;1.15;;;1.00;;
55609;SDS011;41486;52.502;13.486;2023-05-08T10:14:05;3.35;;;1.45;;
55609;SDS011;41486;52.502;13.486;2023-05-08T10:16:39;1.75;;;1.20;;
55609;SDS011;41486;52.502;13.486;2023-05-08T10:19:11;2.95;;;1.35;;
55609;SDS011;41486;52.502;13.486;2023-05-08T10:21:41;2.25;;;1.30;;
55609;SDS011;41486;52.502;13.486;2023-05-08T10:24:13;2.47;;;1.30;;
55609;SDS011;41486;52.502;13.486;2023-05-08T10:26:47;1.30;;;1.08;;
55609;SDS011;41486;52.502;13.486;2023-05-08T10:29:33;3.70;;;1.67;;
55609;SDS011;41486;52.502;13.486;2023-05-08T10:32:09;3.88;;;1.10;;
55609;SDS011;41486;52.502;13.486;2023-05-08T10:34:42;2.00;;;1.30;;
55609;SDS011;41486;52.502;13.486;2023-05-08T10:37:13;1.85;;;1.10;;
55609;SDS011;41486;52.502;13.486;2023-05-08T10:40:00;1.38;;;0.90;;
55609;SDS011;41486;52.502;13.486;2023-05-08T10:42:31;1.70;;;1.20;;
55609;SDS011;41486;52.502;13.486;2023-05-08T10:45:00;1.25;;;1.08;;
55609;SDS011;41486;52.502;13.486;2023-05-08T10:47:31;1.63;;;1.00;;
55609;SDS011;41486;52.502;13.486;2023-05-08T10:50:15;3.67;;;1.75;;
55609;SDS011;41486;52.502;13.486;2023-05-08T10:52:56;3.72;;;1.17;;
55609;SDS011;41486;52.502;13.486;2023-05-08T10:55:30;3.70;;;1.52;;
55609;SDS011;41486;52.502;13.486;2023-05-08T10:58:11;2.50;;;1.13;;
55609;SDS011;41486;52.502;13.486;2023-05-08T11:03:39;2.72;;;1.35;;
55609;SDS011;41486;52.502;13.486;2023-05-08T11:06:09;4.15;;;2.20;;
55609;SDS011;41486;52.502;13.486;2023-05-08T11:08:48;4.30;;;2.42;;
55609;SDS011;41486;52.502;13.486;2023-05-08T11:11:24;7.90;;;2.17;;
55609;SDS011;41486;52.502;13.486;2023-05-08T11:13:58;1.63;;;1.25;;
55609;SDS011;41486;52.502;13.486;2023-05-08T11:19:35;1.60;;;1.10;;
55609;SDS011;41486;52.502;13.486;2023-05-08T11:22:22;3.83;;;1.63;;
55609;SDS011;41486;52.502;13.486;2023-05-08T11:24:53;2.25;;;1.60;;
55609;SDS011;41486;52.502;13.486;2023-05-08T11:27:39;3.60;;;2.45;;
55609;SDS011;41486;52.502;13.486;2023-05-08T11:30:36;2.75;;;1.20;;
55609;SDS011;41486;52.502;13.486;2023-05-08T11:33:12;3.30;;;1.00;;
55609;SDS011;41486;52.502;13.486;2023-05-08T11:35:45;2.05;;;1.20;;
55609;SDS011;41486;52.502;13.486;2023-05-08T11:38:21;1.52;;;1.20;;
55609;SDS011;41486;52.502;13.486;2023-05-08T11:40:55;2.58;;;1.60;;
55609;SDS011;41486;52.502;13.486;2023-05-08T11:46:46;2.35;;;1.13;;
55609;SDS011;41486;52.502;13.486;2023-05-08T11:49:17;2.92;;;1.45;;
55609;SDS011;41486;52.502;13.486;2023-05-08T11:51:52;15.40;;;1.67;;
55609;SDS011;41486;52.502;13.486;2023-05-08T11:54:23;1.98;;;0.95;;
55609;SDS011;41486;52.502;13.486;2023-05-08T11:56:52;2.60;;;1.00;;
55609;SDS011;41486;52.502;13.486;2023-05-08T11:59:20;2.65;;;1.00;;
55609;SDS011;41486;52.502;13.486;2023-05-08T12:01:50;5.18;;;1.33;;
55609;SDS011;41486;52.502;13.486;2023-05-08T12:04:21;1.80;;;1.13;;
55609;SDS011;41486;52.502;13.486;2023-05-08T12:06:50;3.70;;;1.20;;
55609;SDS011;41486;52.502;13.486;2023-05-08T12:09:24;1.50;;;0.90;;
55609;SDS011;41486;52.502;13.486;2023-05-08T12:11:55;2.22;;;1.40;;
55609;SDS011;41486;52.502;13.486;2023-05-08T12:14:24;3.33;;;1.33;;
55609;SDS011;41486;52.502;13.486;2023-05-08T12:16:53;1.33;;;1.00;;
55609;SDS011;41486;52.502;13.486;2023-05-08T12:19:21;5.80;;;2.17;;
55609;SDS011;41486;52.502;13.486;2023-05-08T12:21:51;3.13;;;1.20;;
55609;SDS011;41486;52.502;13.486;2023-05-08T12:24:19;1.85;;;1.40;;
55609;SDS011;41486;52.502;13.486;2023-05-08T12:26:51;2.78;;;1.30;;
55609;SDS011;41486;52.502;13.486;2023-05-08T12:29:21;1.73;;;0.90;;
55609;SDS011;41486;52.502;13.486;2023-05-08T12:31:49;3.67;;;1.02;;
55609;SDS011;41486;52.502;13.486;2023-05-08T12:34:19;3.85;;;2.08;;
55609;SDS011;41486;52.502;13.486;2023-05-08T12:36:48;2.28;;;1.20;;
55609;SDS011;41486;52.502;13.486;2023-05-08T12:39:27;5.57;;;1.10;;
55609;SDS011;41486;52.502;13.486;2023-05-08T12:41:55;1.83;;;0.90;;
55609;SDS011;41486;52.502;13.486;2023-05-08T12:44:26;4.30;;;1.30;;
55609;SDS011;41486;52.502;13.486;2023-05-08T12:46:57;2.00;;;0.98;;
55609;SDS011;41486;52.502;13.486;2023-05-08T12:49:27;2.88;;;1.05;;
55609;SDS011;41486;52.502;13.486;2023-05-08T12:52:00;1.05;;;0.95;;
55609;SDS011;41486;52.502;13.486;2023-05-08T12:54:32;8.07;;;1.00;;
55609;SDS011;41486;52.502;13.486;2023-05-08T12:57:06;1.88;;;1.10;;
55609;SDS011;41486;52.502;13.486;2023-05-08T12:59:36;2.25;;;1.00;;
55609;SDS011;41486;52.502;13.486;2023-05-08T13:02:04;2.03;;;1.10;;
55609;SDS011;41486;52.502;13.486;2023-05-08T13:04:40;4.85;;;1.20;;
55609;SDS011;41486;52.502;13.486;2023-05-08T13:07:09;3.28;;;1.10;;
55609;SDS011;41486;52.502;13.486;2023-05-08T13:09:37;2.45;;;1.27;;
55609;SDS011;41486;52.502;13.486;2023-05-08T13:12:05;1.45;;;1.08;;
55609;SDS011;41486;52.502;13.486;2023-05-08T13:14:33;3.25;;;1.08;;
55609;SDS011;41486;52.502;13.486;2023-05-08T13:17:02;1.65;;;1.08;;
55609;SDS011;41486;52.502;13.486;2023-05-08T13:19:30;1.40;;;1.00;;
55609;SDS011;41486;52.502;13.486;2023-05-08T13:21:59;2.30;;;1.13;;
55609;SDS011;41486;52.502;13.486;2023-05-08T13:24:27;4.93;;;1.10;;
55609;SDS011;41486;52.502;13.486;2023-05-08T13:26:55;5.53;;;3.20;;
55609;SDS011;41486;52.502;13.486;2023-05-08T13:29:23;3.47;;;2.33;;
55609;SDS011;41486;52.502;13.486;2023-05-08T13:31:51;1.10;;;1.00;;
55609;SDS011;41486;52.502;13.486;2023-05-08T13:34:19;1.50;;;0.90;;
55609;SDS011;41486;52.502;13.486;2023-05-08T13:36:48;1.17;;;1.00;;
55609;SDS011;41486;52.502;13.486;2023-05-08T13:39:17;2.80;;;1.13;;
55609;SDS011;41486;52.502;13.486;2023-05-08T13:41:45;2.33;;;0.93;;
55609;SDS011;41486;52.502;13.486;2023-05-08T13:44:13;3.20;;;1.10;;
55609;SDS011;41486;52.502;13.486;2023-05-08T13:46:41;2.20;;;1.00;;
55609;SDS011;41486;52.502;13.486;2023-05-08T13:49:09;3.97;;;0.90;;
55609;SDS011;41486;52.502;13.486;2023-05-08T13:51:37;3.08;;;1.00;;
55609;SDS011;41486;52.502;13.486;2023-05-08T13:54:05;2.85;;;0.90;;
55609;SDS011;41486;52.502;13.486;2023-05-08T13:56:36;1.48;;;0.80;;
55609;SDS011;41486;52.502;13.486;2023-05-08T13:59:04;2.20;;;1.00;;
55609;SDS011;41486;52.502;13.486;2023-05-08T14:01:32;1.90;;;0.93;;
55609;SDS011;41486;52.502;13.486;2023-05-08T14:04:00;1.10;;;1.00;;
55609;SDS011;41486;52.502;13.486;2023-05-08T14:06:28;3.35;;;0.80;;
55609;SDS011;41486;52.502;13.486;2023-05-08T14:08:57;2.95;;;1.58;;
55609;SDS011;41486;52.502;13.486;2023-05-08T14:11:25;2.35;;;1.00;;
55609;SDS011;41486;52.502;13.486;2023-05-08T14:13:59;2.05;;;0.80;;
55609;SDS011;41486;52.502;13.486;2023-05-08T14:16:27;1.80;;;1.17;;
55609;SDS011;41486;52.502;13.486;2023-05-08T14:18:55;5.80;;;1.17;;
55609;SDS011;41486;52.502;13.486;2023-05-08T14:21:23;2.55;;;1.17;;
55609;SDS011;41486;52.502;13.486;2023-05-08T14:23:51;1.35;;;0.98;;
55609;SDS011;41486;52.502;13.486;2023-05-08T14:26:19;1.38;;;0.80;;
55609;SDS011;41486;52.502;13.486;2023-05-08T14:28:47;1.75;;;0.90;;
55609;SDS011;41486;52.502;13.486;2023-05-08T14:31:17;2.83;;;1.00;;
55609;SDS011;41486;52.502;13.486;2023-05-08T14:33:45;2.13;;;0.90;;
55609;SDS011;41486;52.502;13.486;2023-05-08T14:36:13;2.75;;;0.90;;
55609;SDS011;41486;52.502;13.486;2023-05-08T14:38:41;1.30;;;1.00;;
55609;SDS011;41486;52.502;13.486;2023-05-08T14:41:09;3.10;;;1.10;;
55609;SDS011;41486;52.502;13.486;2023-05-08T14:43:37;3.10;;;1.05;;
55609;SDS011;41486;52.502;13.486;2023-05-08T14:46:05;2.92;;;1.00;;
55609;SDS011;41486;52.502;13.486;2023-05-08T14:48:34;3.08;;;1.40;;
55609;SDS011;41486;52.502;13.486;2023-05-08T14:51:02;1.10;;;0.80;;
55609;SDS011;41486;52.502;13.486;2023-05-08T14:53:30;1.25;;;1.10;;
55609;SDS011;41486;52.502;13.486;2023-05-08T14:55:59;1.50;;;0.80;;
55609;SDS011;41486;52.502;13.486;2023-05-08T14:58:27;2.35;;;1.75;;
55609;SDS011;41486;52.502;13.486;2023-05-08T15:00:55;3.10;;;1.02;;
55609;SDS011;41486;52.502;13.486;2023-05-08T15:03:23;1.17;;;0.82;;
55609;SDS011;41486;52.502;13.486;2023-05-08T15:05:53;6.97;;;2.88;;
55609;SDS011;41486;52.502;13.486;2023-05-08T15:08:21;3.28;;;1.00;;
55609;SDS011;41486;52.502;13.486;2023-05-08T15:10:49;2.05;;;1.30;;
55609;SDS011;41486;52.502;13.486;2023-05-08T15:13:17;2.22;;;1.00;;
55609;SDS011;41486;52.502;13.486;2023-05-08T15:15:48;1.33;;;0.90;;
55609;SDS011;41486;52.502;13.486;2023-05-08T15:18:16;1.70;;;0.90;;
55609;SDS011;41486;52.502;13.486;2023-05-08T15:20:44;3.63;;;1.10;;
55609;SDS011;41486;52.502;13.486;2023-05-08T15:23:14;1.60;;;1.10;;
55609;SDS011;41486;52.502;13.486;2023-05-08T15:25:42;1.60;;;1.25;;
55609;SDS011;41486;52.502;13.486;2023-05-08T15:28:10;2.22;;;1.15;;
55609;SDS011;41486;52.502;13.486;2023-05-08T15:30:37;3.20;;;1.20;;
55609;SDS011;41486;52.502;13.486;2023-05-08T15:33:05;1.65;;;1.15;;
55609;SDS011;41486;52.502;13.486;2023-05-08T15:35:34;3.13;;;1.10;;
55609;SDS011;41486;52.502;13.486;2023-05-08T15:38:02;1.58;;;1.10;;
55609;SDS011;41486;52.502;13.486;2023-05-08T15:40:33;1.23;;;1.02;;
55609;SDS011;41486;52.502;13.486;2023-05-08T15:43:01;1.45;;;0.90;;
55609;SDS011;41486;52.502;13.486;2023-05-08T15:45:29;1.38;;;1.08;;
55609;SDS011;41486;52.502;13.486;2023-05-08T15:47:57;2.95;;;1.20;;
55609;SDS011;41486;52.502;13.486;2023-05-08T15:50:26;1.85;;;1.08;;
55609;SDS011;41486;52.502;13.486;2023-05-08T15:52:53;2.88;;;2.35;;
55609;SDS011;41486;52.502;13.486;2023-05-08T15:55:21;2.35;;;1.00;;
55609;SDS011;41486;52.502;13.486;2023-05-08T15:57:51;3.55;;;1.00;;
55609;SDS011;41486;52.502;13.486;2023-05-08T16:00:20;2.05;;;1.25;;
55609;SDS011;41486;52.502;13.486;2023-05-08T16:02:52;4.55;;;2.60;;
55609;SDS011;41486;52.502;13.486;2023-05-08T16:05:20;2.45;;;1.30;;
55609;SDS011;41486;52.502;13.486;2023-05-08T16:07:48;3.42;;;1.15;;
55609;SDS011;41486;52.502;13.486;2023-05-08T16:10:17;4.05;;;1.45;;
55609;SDS011;41486;52.502;13.486;2023-05-08T16:12:45;4.40;;;2.17;;
55609;SDS011;41486;52.502;13.486;2023-05-08T16:15:15;4.25;;;2.22;;